Terminal Aerodrome Forecast
Issued by NWS Sterling, VA

Home | Current Version | Previous Version | Text Only | Print | Product List | Glossary On
Versions: 1 2 3 4 5 6 7 8 9 10 11 12 13 14 15 16 17 18 19 20 21 22 23 24 25 26 27
000
FTUS41 KLWX 192052 AAB
TAFBWI
TAF AMD
KBWI 192052Z 1921/2024 16003KT 1SM -DZ BR OVC004
     FM200300 20004KT 6SM BR OVC010
     FM200600 22007KT 3SM BR OVC010 WS020/23035KT
     FM201500 21009KT P6SM FEW025 SCT080=

USA.gov is the U.S. government's official web portal to all federal, state and local government web resources and services.